createdAt,value
2022-11-16T00:02:18.731Z,15.91
2022-11-16T00:04:45.640Z,15.93
2022-11-16T00:07:12.528Z,15.44
2022-11-16T00:09:39.475Z,15.78
2022-11-16T00:12:07.282Z,15.95
2022-11-16T00:14:35.018Z,15.76
2022-11-16T00:17:02.035Z,15.71
2022-11-16T00:19:29.157Z,15.71
2022-11-16T00:21:56.076Z,15.82
2022-11-16T00:24:23.416Z,15.83
2022-11-16T00:26:50.561Z,15.86
2022-11-16T00:29:20.079Z,15.78
2022-11-16T00:31:47.108Z,15.90
2022-11-16T00:34:14.143Z,15.68
2022-11-16T00:36:41.018Z,15.77
2022-11-16T00:39:13.307Z,15.67
2022-11-16T00:41:40.805Z,15.75
2022-11-16T00:44:08.029Z,15.71
2022-11-16T00:46:34.855Z,15.68
2022-11-16T00:49:02.037Z,15.73
2022-11-16T00:51:29.248Z,15.69
2022-11-16T00:53:56.496Z,15.68
2022-11-16T00:56:23.408Z,15.70
2022-11-16T00:58:50.268Z,15.68
2022-11-16T01:01:17.303Z,15.67
2022-11-16T01:03:44.271Z,15.66
2022-11-16T01:06:13.028Z,15.65
2022-11-16T01:08:40.236Z,15.36
2022-11-16T01:11:26.139Z,15.57
2022-11-16T01:13:53.085Z,15.51
2022-11-16T01:16:21.050Z,15.44
2022-11-16T01:18:49.192Z,15.43
2022-11-16T01:21:16.644Z,15.33
2022-11-16T01:23:44.253Z,15.34
2022-11-16T01:26:11.127Z,14.99
2022-11-16T01:28:39.508Z,14.75
2022-11-16T01:31:08.239Z,14.70
2022-11-16T01:33:36.911Z,15.32
2022-11-16T01:36:08.171Z,15.24
2022-11-16T01:38:35.539Z,15.25
2022-11-16T01:41:02.793Z,15.17
2022-11-16T01:43:48.330Z,15.14
2022-11-16T01:46:15.641Z,15.12
2022-11-16T01:48:42.695Z,14.91
2022-11-16T01:51:09.576Z,14.61
2022-11-16T01:53:36.623Z,14.57
2022-11-16T01:56:03.995Z,14.74
2022-11-16T01:58:43.061Z,14.42
2022-11-16T02:01:25.523Z,14.41
2022-11-16T02:03:56.249Z,14.34
2022-11-16T02:06:23.318Z,14.28
2022-11-16T02:09:25.710Z,14.26
2022-11-16T02:12:06.504Z,14.44
2022-11-16T02:15:07.855Z,14.66
2022-11-16T02:17:47.316Z,14.62
2022-11-16T02:20:48.859Z,14.58
2022-11-16T02:23:21.875Z,14.71
2022-11-16T02:26:09.003Z,14.72
2022-11-16T02:29:15.413Z,14.66
2022-11-16T02:32:06.395Z,14.62
2022-11-16T02:34:53.061Z,14.63
2022-11-16T02:37:20.984Z,14.59
2022-11-16T02:39:49.257Z,14.58
2022-11-16T02:42:26.298Z,14.47
2022-11-16T02:44:53.282Z,14.53
2022-11-16T02:47:22.779Z,14.54
2022-11-16T02:49:56.522Z,14.53
2022-11-16T02:52:23.476Z,13.93
2022-11-16T02:54:50.291Z,14.36
2022-11-16T02:57:25.381Z,14.36
2022-11-16T02:59:53.462Z,14.33
2022-11-16T03:02:28.254Z,14.09
2022-11-16T03:04:59.704Z,13.77
2022-11-16T03:07:33.680Z,13.87
2022-11-16T03:10:00.715Z,14.42
2022-11-16T03:12:31.450Z,14.91
2022-11-16T03:15:00.091Z,14.84
2022-11-16T03:17:47.303Z,15.01
2022-11-16T03:20:16.402Z,15.18
2022-11-16T03:22:48.415Z,16.03
2022-11-16T03:25:18.479Z,16.34
2022-11-16T03:27:59.790Z,16.45
2022-11-16T03:30:27.962Z,16.94
2022-11-16T03:33:27.387Z,17.05
2022-11-16T03:36:01.613Z,16.86
2022-11-16T03:38:31.257Z,17.54
2022-11-16T03:41:01.254Z,17.87
2022-11-16T03:43:28.783Z,18.04
2022-11-16T03:45:55.672Z,18.31
2022-11-16T03:48:23.669Z,18.48
2022-11-16T03:50:50.742Z,18.63
2022-11-16T03:53:18.891Z,18.93
2022-11-16T03:55:49.830Z,19.19
2022-11-16T03:58:18.663Z,19.33
2022-11-16T04:00:45.820Z,19.48
2022-11-16T04:03:12.917Z,19.66
2022-11-16T04:05:58.689Z,19.82
2022-11-16T04:08:44.106Z,19.98
2022-11-16T04:11:34.027Z,20.10
2022-11-16T04:14:19.619Z,20.27
2022-11-16T04:17:05.213Z,20.44
2022-11-16T04:19:56.751Z,20.56
2022-11-16T04:22:46.760Z,19.98
2022-11-16T04:25:20.836Z,20.83
2022-11-16T04:28:06.383Z,20.99
2022-11-16T04:30:51.904Z,21.09
2022-11-16T04:33:38.178Z,20.63
2022-11-16T04:36:23.715Z,21.17
2022-11-16T04:38:50.635Z,21.38
2022-11-16T04:41:37.004Z,21.48
2022-11-16T04:44:03.949Z,21.52
2022-11-16T04:47:03.337Z,21.70
2022-11-16T04:49:30.408Z,21.89
2022-11-16T04:51:58.713Z,22.29
2022-11-16T04:54:26.146Z,22.42
2022-11-16T04:56:53.230Z,22.57
2022-11-16T04:59:21.018Z,22.75
2022-11-16T05:02:06.720Z,22.86
2022-11-16T05:04:33.877Z,22.77
2022-11-16T05:07:01.087Z,22.78
2022-11-16T05:09:28.108Z,22.83
2022-11-16T05:11:55.032Z,22.89
2022-11-16T05:14:22.212Z,22.96
2022-11-16T05:16:49.652Z,23.03
2022-11-16T05:19:35.989Z,23.11
2022-11-16T05:22:04.122Z,23.13
2022-11-16T05:24:33.865Z,23.15
2022-11-16T05:27:07.263Z,23.17
2022-11-16T05:29:35.259Z,23.05
2022-11-16T05:32:03.726Z,23.24
2022-11-16T05:34:31.700Z,23.24
2022-11-16T05:37:00.562Z,23.27
2022-11-16T05:39:29.731Z,23.35
2022-11-16T05:41:57.108Z,23.29
2022-11-16T05:44:24.323Z,23.49
2022-11-16T05:46:51.798Z,23.54
2022-11-16T05:49:20.243Z,23.60
2022-11-16T05:51:48.355Z,23.69
2022-11-16T05:54:20.279Z,23.57
2022-11-16T05:56:48.226Z,23.84
2022-11-16T05:59:17.464Z,23.84
2022-11-16T06:01:45.804Z,23.94
2022-11-16T06:04:13.007Z,23.98
2022-11-16T06:06:40.320Z,23.90
2022-11-16T06:09:07.921Z,24.11
2022-11-16T06:11:38.274Z,24.07
2022-11-16T06:14:06.294Z,23.98
2022-11-16T06:16:34.705Z,23.85
2022-11-16T06:19:05.321Z,23.79
2022-11-16T06:21:33.157Z,23.86
2022-11-16T06:24:05.868Z,23.96
2022-11-16T06:26:32.827Z,24.05
2022-11-16T06:28:59.933Z,24.14
2022-11-16T06:31:28.001Z,24.22
2022-11-16T06:33:55.461Z,24.28
2022-11-16T06:36:26.243Z,24.37
2022-11-16T06:38:53.677Z,24.44
2022-11-16T06:41:22.124Z,24.50
2022-11-16T06:43:50.538Z,24.44
2022-11-16T06:46:21.040Z,24.48
2022-11-16T06:48:48.523Z,24.67
2022-11-16T06:51:15.426Z,24.73
2022-11-16T06:53:42.749Z,24.75
2022-11-16T06:56:09.643Z,24.80
2022-11-16T06:58:43.045Z,24.82
2022-11-16T07:01:11.748Z,24.74
2022-11-16T07:03:41.061Z,24.90
2022-11-16T07:06:13.018Z,24.84
2022-11-16T07:08:42.671Z,25.00
2022-11-16T07:11:11.452Z,25.03
2022-11-16T07:13:38.627Z,24.95
2022-11-16T07:16:07.828Z,25.04
2022-11-16T07:18:35.984Z,24.86
2022-11-16T07:21:15.548Z,25.08
2022-11-16T07:23:43.969Z,25.22
2022-11-16T07:26:15.239Z,25.24
2022-11-16T07:28:53.451Z,25.29
2022-11-16T07:31:22.433Z,25.34
2022-11-16T07:34:10.360Z,25.38
2022-11-16T07:36:42.773Z,25.43
2022-11-16T07:39:10.767Z,25.47
2022-11-16T07:41:38.641Z,25.50
2022-11-16T07:44:25.815Z,25.31
2022-11-16T07:47:05.530Z,25.57
2022-11-16T07:49:34.048Z,25.60
2022-11-16T07:52:21.570Z,25.61
2022-11-16T07:55:10.216Z,25.69
2022-11-16T07:57:37.278Z,25.71
2022-11-16T08:00:07.408Z,25.76
2022-11-16T08:02:50.408Z,25.79
2022-11-16T08:05:20.020Z,25.83
2022-11-16T08:07:49.100Z,25.85
2022-11-16T08:10:17.137Z,25.90
2022-11-16T08:12:44.259Z,25.94
2022-11-16T08:15:11.728Z,25.98
2022-11-16T08:17:38.724Z,26.03
2022-11-16T08:20:08.439Z,26.06
2022-11-16T08:22:35.553Z,25.98
2022-11-16T08:25:02.818Z,26.17
2022-11-16T08:27:31.078Z,26.21
2022-11-16T08:29:58.133Z,26.26
2022-11-16T08:32:25.983Z,26.32
2022-11-16T08:34:54.206Z,26.21
2022-11-16T08:37:22.099Z,25.89
2022-11-16T08:39:49.241Z,25.88
2022-11-16T08:42:16.190Z,25.79
2022-11-16T08:44:46.715Z,25.90
2022-11-16T08:47:15.749Z,25.74
2022-11-16T08:49:52.104Z,25.80
2022-11-16T08:52:22.299Z,25.74
2022-11-16T08:54:50.946Z,25.64
2022-11-16T08:57:18.167Z,25.53
2022-11-16T08:59:48.399Z,25.23
2022-11-16T09:02:15.436Z,25.04
2022-11-16T09:04:44.767Z,24.90
2022-11-16T09:07:11.920Z,24.78
2022-11-16T09:09:43.380Z,24.71
2022-11-16T09:12:10.322Z,24.50
2022-11-16T09:14:37.325Z,24.59
2022-11-16T09:17:04.301Z,24.46
2022-11-16T09:19:31.192Z,24.42
2022-11-16T09:21:58.201Z,24.35
2022-11-16T09:24:25.053Z,24.27
2022-11-16T09:26:51.975Z,23.92
2022-11-16T09:29:19.016Z,24.14
2022-11-16T09:31:46.162Z,23.96
2022-11-16T09:34:13.109Z,23.88
2022-11-16T09:36:40.130Z,23.80
2022-11-16T09:42:01.801Z,23.65
2022-11-16T09:44:57.862Z,23.32
2022-11-16T09:47:36.225Z,23.53
2022-11-16T09:50:04.324Z,23.45
2022-11-16T09:52:44.792Z,23.42
2022-11-16T09:55:25.101Z,23.37
2022-11-16T09:57:53.759Z,23.31
2022-11-16T10:00:25.772Z,23.27
2022-11-16T10:03:06.544Z,23.22
2022-11-16T10:05:56.458Z,23.22
2022-11-16T10:08:28.429Z,23.15
2022-11-16T10:11:00.215Z,23.11
2022-11-16T10:13:34.965Z,23.11
2022-11-16T10:16:32.434Z,23.09
2022-11-16T10:19:05.833Z,23.05
2022-11-16T10:22:17.937Z,23.03
2022-11-16T10:24:58.025Z,22.98
2022-11-16T10:27:50.232Z,22.95
2022-11-16T10:30:20.824Z,22.92
2022-11-16T10:33:12.819Z,22.90
2022-11-16T10:35:48.305Z,22.70
2022-11-16T10:38:17.316Z,22.75
2022-11-16T10:40:46.450Z,22.86
2022-11-16T10:43:16.867Z,22.75
2022-11-16T10:45:45.957Z,23.02
2022-11-16T10:48:17.946Z,23.05
2022-11-16T10:50:46.931Z,23.06
2022-11-16T10:53:15.309Z,23.14
2022-11-16T10:55:42.380Z,23.21
2022-11-16T10:58:09.394Z,23.27
2022-11-16T11:00:48.122Z,23.33
2022-11-16T11:03:15.323Z,23.18
2022-11-16T11:05:52.518Z,23.31
2022-11-16T11:08:39.720Z,23.17
2022-11-16T11:11:25.519Z,23.30
2022-11-16T11:14:08.457Z,23.27
2022-11-16T11:16:35.535Z,23.29
2022-11-16T11:19:18.892Z,23.17
2022-11-16T11:21:45.961Z,23.30
2022-11-16T11:24:43.263Z,23.30
2022-11-16T11:27:04.784Z,23.35
2022-11-16T11:29:32.719Z,23.37
2022-11-16T11:32:07.447Z,23.06
2022-11-16T11:34:39.812Z,23.31
2022-11-16T11:37:07.240Z,23.29
2022-11-16T11:39:35.275Z,23.32
2022-11-16T11:42:09.383Z,23.37
2022-11-16T11:44:37.389Z,23.35
2022-11-16T11:47:57.262Z,23.34
2022-11-16T11:50:46.001Z,23.10
2022-11-16T11:53:29.287Z,23.17
2022-11-16T11:55:58.361Z,23.22
2022-11-16T11:58:35.690Z,23.27
2022-11-16T12:01:24.999Z,23.09
2022-11-16T12:04:34.548Z,23.26
2022-11-16T12:07:32.200Z,23.26
2022-11-16T12:10:20.260Z,23.29
2022-11-16T12:12:49.867Z,23.29
2022-11-16T12:15:51.561Z,23.29
2022-11-16T12:18:31.560Z,23.12
2022-11-16T12:21:27.953Z,23.25
2022-11-16T12:24:09.882Z,23.29
2022-11-16T12:26:52.827Z,23.30
2022-11-16T12:29:27.195Z,22.96
2022-11-16T12:31:54.052Z,23.18
2022-11-16T12:35:02.840Z,23.11
2022-11-16T12:37:39.441Z,23.14
2022-11-16T12:40:21.620Z,23.19
2022-11-16T12:43:03.795Z,23.17
2022-11-16T12:45:48.782Z,23.10
2022-11-16T12:48:21.619Z,23.02
2022-11-16T12:51:06.857Z,23.01
2022-11-16T12:53:47.312Z,22.87
2022-11-16T12:56:49.457Z,22.99
2022-11-16T12:59:25.681Z,22.94
2022-11-16T13:02:08.539Z,22.91
2022-11-16T13:04:41.592Z,22.73
2022-11-16T13:07:11.601Z,22.93
2022-11-16T13:09:47.492Z,22.97
2022-11-16T13:12:17.285Z,22.94
2022-11-16T13:14:48.212Z,22.91
2022-11-16T13:17:41.586Z,22.88
2022-11-16T13:20:33.041Z,22.87
2022-11-16T13:23:18.995Z,22.90
2022-11-16T13:25:59.904Z,22.87
2022-11-16T13:28:37.528Z,22.84
2022-11-16T13:31:20.884Z,22.77
2022-11-16T13:33:51.209Z,22.60
2022-11-16T13:36:43.554Z,22.78
2022-11-16T13:39:52.492Z,22.77
2022-11-16T13:42:19.430Z,22.66
2022-11-16T13:44:51.384Z,22.59
2022-11-16T13:47:24.818Z,22.60
2022-11-16T13:49:56.695Z,22.41
2022-11-16T13:52:28.740Z,22.55
2022-11-16T13:55:27.816Z,22.55
2022-11-16T13:57:55.412Z,22.39
2022-11-16T14:00:33.453Z,22.56
2022-11-16T14:03:15.642Z,22.60
2022-11-16T14:05:47.203Z,22.60
2022-11-16T14:08:20.090Z,22.56
2022-11-16T14:10:52.753Z,22.49
2022-11-16T14:13:39.696Z,22.47
2022-11-16T14:16:19.505Z,22.49
2022-11-16T14:18:53.266Z,22.52
2022-11-16T14:21:20.265Z,22.49
2022-11-16T14:24:14.884Z,22.48
2022-11-16T14:27:17.067Z,22.40
2022-11-16T14:30:19.628Z,22.42
2022-11-16T14:32:47.649Z,22.39
2022-11-16T14:35:37.306Z,22.44
2022-11-16T14:38:06.596Z,22.40
2022-11-16T14:40:41.910Z,22.44
2022-11-16T14:43:17.569Z,22.32
2022-11-16T14:45:47.471Z,22.29
2022-11-16T14:48:19.277Z,22.22
2022-11-16T14:51:07.593Z,22.17
2022-11-16T14:53:35.536Z,22.08
2022-11-16T14:56:13.047Z,22.01
2022-11-16T14:58:40.183Z,21.78
2022-11-16T15:01:11.838Z,21.85
2022-11-16T15:04:04.844Z,21.77
2022-11-16T15:06:58.178Z,21.63
2022-11-16T15:09:38.721Z,21.57
2022-11-16T15:12:25.224Z,21.49
2022-11-16T15:14:56.484Z,21.42
2022-11-16T15:17:30.128Z,21.31
2022-11-16T15:20:01.464Z,21.26
2022-11-16T15:22:32.216Z,21.18
2022-11-16T15:25:00.239Z,21.09
2022-11-16T15:27:41.142Z,21.03
2022-11-16T15:30:16.211Z,20.97
2022-11-16T15:32:46.631Z,20.93
2022-11-16T15:35:34.032Z,20.88
2022-11-16T15:38:22.751Z,20.81
2022-11-16T15:40:55.527Z,20.73
2022-11-16T15:43:24.531Z,20.65
2022-11-16T15:45:51.842Z,20.62
2022-11-16T15:48:22.987Z,20.57
2022-11-16T15:51:15.518Z,20.54
2022-11-16T15:53:43.958Z,20.45
2022-11-16T15:56:16.818Z,20.40
2022-11-16T15:58:43.749Z,20.29
2022-11-16T16:01:11.241Z,20.21
2022-11-16T16:03:38.462Z,20.12
2022-11-16T16:06:05.869Z,19.92
2022-11-16T16:08:33.427Z,20.03
2022-11-16T16:11:09.472Z,19.85
2022-11-16T16:13:41.575Z,19.91
2022-11-16T16:16:22.856Z,19.85
2022-11-16T16:18:49.915Z,19.75
2022-11-16T16:21:16.768Z,19.71
2022-11-16T16:23:45.619Z,19.66
2022-11-16T16:26:13.566Z,19.46
2022-11-16T16:28:40.397Z,19.54
2022-11-16T16:31:07.522Z,19.49
2022-11-16T16:33:34.663Z,19.45
2022-11-16T16:36:01.878Z,19.38
2022-11-16T16:38:29.214Z,19.34
2022-11-16T16:41:05.304Z,19.26
2022-11-16T16:43:32.549Z,18.89
2022-11-16T16:46:03.786Z,19.16
2022-11-16T16:48:30.632Z,19.11
2022-11-16T16:50:57.594Z,19.06
2022-11-16T16:53:24.526Z,19.03
2022-11-16T16:55:51.366Z,18.96
2022-11-16T16:58:18.753Z,18.96
2022-11-16T17:00:45.799Z,18.93
2022-11-16T17:03:12.653Z,18.90
2022-11-16T17:05:39.576Z,18.86
2022-11-16T17:08:06.442Z,18.83
2022-11-16T17:10:33.282Z,18.79
2022-11-16T17:13:03.090Z,18.73
2022-11-16T17:15:30.076Z,18.68
2022-11-16T17:17:58.281Z,18.61
2022-11-16T17:20:25.210Z,18.59
2022-11-16T17:22:52.027Z,18.53
2022-11-16T17:25:18.856Z,18.50
2022-11-16T17:27:45.706Z,18.46
2022-11-16T17:30:13.373Z,18.39
2022-11-16T17:32:40.199Z,18.34
2022-11-16T17:35:07.405Z,18.29
2022-11-16T17:37:34.203Z,18.26
2022-11-16T17:40:01.041Z,18.23
2022-11-16T17:42:27.891Z,18.17
2022-11-16T17:44:55.194Z,18.11
2022-11-16T17:47:22.202Z,18.04
2022-11-16T17:49:49.052Z,17.90
2022-11-16T17:52:15.890Z,17.94
2022-11-16T17:54:42.756Z,17.92
2022-11-16T17:57:09.687Z,17.88
2022-11-16T17:59:36.505Z,17.84
2022-11-16T18:02:03.301Z,17.81
2022-11-16T18:04:30.182Z,17.76
2022-11-16T18:06:57.171Z,17.73
2022-11-16T18:09:24.210Z,17.68
2022-11-16T18:11:51.062Z,17.63
2022-11-16T18:14:17.885Z,17.60
2022-11-16T18:16:44.773Z,17.58
2022-11-16T18:19:15.897Z,17.55
2022-11-16T18:21:42.849Z,17.41
2022-11-16T18:24:09.732Z,17.48
2022-11-16T18:26:36.719Z,17.45
2022-11-16T18:29:03.570Z,17.40
2022-11-16T18:31:32.911Z,17.39
2022-11-16T18:34:01.027Z,17.36
2022-11-16T18:36:27.885Z,17.19
2022-11-16T18:38:54.824Z,17.31
2022-11-16T18:41:24.096Z,17.27
2022-11-16T18:43:52.655Z,17.25
2022-11-16T18:46:20.553Z,17.20
2022-11-16T18:48:47.772Z,16.99
2022-11-16T18:51:15.179Z,17.13
2022-11-16T18:53:42.017Z,17.07
2022-11-16T18:56:08.995Z,16.96
2022-11-16T18:58:49.746Z,16.98
2022-11-16T19:01:18.546Z,16.94
2022-11-16T19:03:45.525Z,16.72
2022-11-16T19:06:12.408Z,16.72
2022-11-16T19:08:40.265Z,16.64
2022-11-16T19:11:08.975Z,16.59
2022-11-16T19:13:36.111Z,16.77
2022-11-16T19:16:03.289Z,16.74
2022-11-16T19:18:30.096Z,16.68
2022-11-16T19:21:14.142Z,16.69
2022-11-16T19:23:48.465Z,16.51
2022-11-16T19:26:16.178Z,16.60
2022-11-16T19:28:44.289Z,16.58
2022-11-16T19:31:12.780Z,16.56
2022-11-16T19:33:40.097Z,16.53
2022-11-16T19:36:11.029Z,16.50
2022-11-16T19:38:37.922Z,16.47
2022-11-16T19:41:05.553Z,16.45
2022-11-16T19:43:33.216Z,16.43
2022-11-16T19:46:04.173Z,16.41
2022-11-16T19:48:32.353Z,16.37
2022-11-16T19:51:05.469Z,16.37
2022-11-16T19:53:32.853Z,16.33
2022-11-16T19:55:59.898Z,16.25
2022-11-16T19:58:26.790Z,16.29
2022-11-16T20:01:00.453Z,16.27
2022-11-16T20:03:27.343Z,16.24
2022-11-16T20:05:54.287Z,16.23
2022-11-16T20:08:21.145Z,16.22
2022-11-16T20:10:47.980Z,16.21
2022-11-16T20:13:14.794Z,16.19
2022-11-16T20:15:41.664Z,16.17
2022-11-16T20:18:08.526Z,16.15
2022-11-16T20:20:35.335Z,16.09
2022-11-16T20:23:02.204Z,16.12
2022-11-16T20:25:29.532Z,16.08
2022-11-16T20:27:56.389Z,16.06
2022-11-16T20:30:23.263Z,16.08
2022-11-16T20:32:50.172Z,16.05
2022-11-16T20:35:19.223Z,16.03
2022-11-16T20:37:46.296Z,16.01
2022-11-16T20:40:13.742Z,16.00
2022-11-16T20:42:40.570Z,15.98
2022-11-16T20:45:08.242Z,15.91
2022-11-16T20:47:35.075Z,15.92
2022-11-16T20:50:03.191Z,15.90
2022-11-16T20:52:30.205Z,15.76
2022-11-16T20:54:57.035Z,15.84
2022-11-16T20:57:24.095Z,15.85
2022-11-16T20:59:50.977Z,15.83
2022-11-16T21:02:17.842Z,15.80
2022-11-16T21:04:44.649Z,15.78
2022-11-16T21:07:11.547Z,15.73
2022-11-16T21:09:58.362Z,15.74
2022-11-16T21:12:43.906Z,15.69
2022-11-16T21:15:10.897Z,15.66
2022-11-16T21:17:37.736Z,15.65
2022-11-16T21:20:26.321Z,15.63
2022-11-16T21:22:51.674Z,15.60
2022-11-16T21:25:18.548Z,15.58
2022-11-16T21:27:46.279Z,15.55
2022-11-16T21:30:13.753Z,15.53
2022-11-16T21:32:40.621Z,15.50
2022-11-16T21:35:07.802Z,15.48
2022-11-16T21:37:34.636Z,15.44
2022-11-16T21:40:01.559Z,15.33
2022-11-16T21:42:28.387Z,15.39
2022-11-16T21:44:55.202Z,15.38
2022-11-16T21:47:22.273Z,15.37
2022-11-16T21:50:16.714Z,15.35
2022-11-16T21:52:36.382Z,15.33
2022-11-16T21:55:03.299Z,15.31
2022-11-16T21:57:30.126Z,15.31
2022-11-16T21:59:57.028Z,15.21
2022-11-16T22:02:23.862Z,15.29
2022-11-16T22:05:23.206Z,15.28
2022-11-16T22:07:50.110Z,15.25
2022-11-16T22:10:17.349Z,15.25
2022-11-16T22:12:44.213Z,15.22
2022-11-16T22:15:11.186Z,15.21
2022-11-16T22:17:44.782Z,15.20
2022-11-16T22:20:11.764Z,15.03
2022-11-16T22:22:38.578Z,15.16
2022-11-16T22:25:06.306Z,15.13
2022-11-16T22:27:42.383Z,15.09
2022-11-16T22:30:19.364Z,15.07
2022-11-16T22:32:46.163Z,15.02
2022-11-16T22:35:13.050Z,14.99
2022-11-16T22:37:39.956Z,14.97
2022-11-16T22:40:07.254Z,14.92
2022-11-16T22:42:34.123Z,14.91
2022-11-16T22:45:01.005Z,14.88
2022-11-16T22:47:27.828Z,14.87
2022-11-16T22:49:54.693Z,14.83
2022-11-16T22:52:21.597Z,14.76
2022-11-16T22:54:48.527Z,14.76
2022-11-16T22:57:15.401Z,14.73
2022-11-16T22:59:42.264Z,14.70
2022-11-16T23:02:09.162Z,14.70
2022-11-16T23:04:36.072Z,14.68
2022-11-16T23:07:03.215Z,14.65
2022-11-16T23:09:32.013Z,14.61
2022-11-16T23:12:17.558Z,14.59
2022-11-16T23:15:03.157Z,14.37
2022-11-16T23:17:30.012Z,14.53
2022-11-16T23:20:17.760Z,14.51
2022-11-16T23:23:03.789Z,14.48
2022-11-16T23:26:00.245Z,14.45
2022-11-16T23:28:27.112Z,14.43
2022-11-16T23:30:54.048Z,14.40
2022-11-16T23:33:40.866Z,14.41
2022-11-16T23:36:08.142Z,14.40
2022-11-16T23:38:34.996Z,14.38
2022-11-16T23:41:21.807Z,14.34
2022-11-16T23:44:00.744Z,14.31
2022-11-16T23:46:28.975Z,14.26
2022-11-16T23:48:55.910Z,14.11
2022-11-16T23:51:23.515Z,14.05
2022-11-16T23:53:51.772Z,14.20
2022-11-16T23:56:19.667Z,14.17
2022-11-16T23:58:46.591Z,14.12
